sensor_id;sensor_type;location;lat;lon;timestamp;pressure;altitude;pressure_sealevel;temperature;humidity
58690;BME280;44470;53.206;-6.106;2024-02-14T00:00:37;100281.38;;;21.55;44.09
58690;BME280;44470;53.206;-6.106;2024-02-14T00:03:03;100271.22;;;21.40;44.52
58690;BME280;44470;53.206;-6.106;2024-02-14T00:05:28;100271.78;;;21.49;44.39
58690;BME280;44470;53.206;-6.106;2024-02-14T00:07:54;100278.78;;;21.54;44.42
58690;BME280;44470;53.206;-6.106;2024-02-14T00:10:19;100269.03;;;21.51;44.27
58690;BME280;44470;53.206;-6.106;2024-02-14T00:12:45;100270.88;;;21.49;44.46
58690;BME280;44470;53.206;-6.106;2024-02-14T00:15:11;100268.47;;;21.41;44.66
58690;BME280;44470;53.206;-6.106;2024-02-14T00:17:37;100262.81;;;21.51;44.32
58690;BME280;44470;53.206;-6.106;2024-02-14T00:20:03;100266.72;;;21.40;44.47
58690;BME280;44470;53.206;-6.106;2024-02-14T00:22:29;100252.59;;;21.35;44.59
58690;BME280;44470;53.206;-6.106;2024-02-14T00:24:54;100255.91;;;21.43;44.37
58690;BME280;44470;53.206;-6.106;2024-02-14T00:27:19;100255.25;;;21.37;44.78
58690;BME280;44470;53.206;-6.106;2024-02-14T00:29:45;100243.91;;;21.55;44.20
58690;BME280;44470;53.206;-6.106;2024-02-14T00:32:15;100241.91;;;21.62;43.95
58690;BME280;44470;53.206;-6.106;2024-02-14T00:34:40;100248.84;;;21.41;44.37
58690;BME280;44470;53.206;-6.106;2024-02-14T00:37:06;100238.66;;;21.52;44.32
58690;BME280;44470;53.206;-6.106;2024-02-14T00:39:31;100240.72;;;21.44;44.23
58690;BME280;44470;53.206;-6.106;2024-02-14T00:41:56;100247.94;;;21.42;44.60
58690;BME280;44470;53.206;-6.106;2024-02-14T00:44:22;100243.63;;;21.38;44.50
58690;BME280;44470;53.206;-6.106;2024-02-14T00:46:47;100237.91;;;21.48;44.50
58690;BME280;44470;53.206;-6.106;2024-02-14T00:49:16;100239.72;;;21.46;44.51
58690;BME280;44470;53.206;-6.106;2024-02-14T00:51:41;100246.00;;;21.45;44.68
58690;BME280;44470;53.206;-6.106;2024-02-14T00:54:07;100244.25;;;21.44;44.65
58690;BME280;44470;53.206;-6.106;2024-02-14T00:56:33;100247.09;;;21.40;44.31
58690;BME280;44470;53.206;-6.106;2024-02-14T00:58:59;100243.66;;;21.36;44.71
58690;BME280;44470;53.206;-6.106;2024-02-14T01:01:24;100241.03;;;21.34;44.98
58690;BME280;44470;53.206;-6.106;2024-02-14T01:03:50;100244.53;;;21.37;44.56
58690;BME280;44470;53.206;-6.106;2024-02-14T01:06:16;100239.66;;;21.49;44.26
58690;BME280;44470;53.206;-6.106;2024-02-14T01:08:41;100242.47;;;21.45;44.61
58690;BME280;44470;53.206;-6.106;2024-02-14T01:11:07;100239.66;;;21.49;44.12
58690;BME280;44470;53.206;-6.106;2024-02-14T01:13:33;100240.16;;;21.34;44.66
58690;BME280;44470;53.206;-6.106;2024-02-14T01:15:58;100230.22;;;21.38;44.40
58690;BME280;44470;53.206;-6.106;2024-02-14T01:18:23;100243.72;;;21.34;44.41
58690;BME280;44470;53.206;-6.106;2024-02-14T01:20:49;100238.28;;;21.36;44.56
58690;BME280;44470;53.206;-6.106;2024-02-14T01:23:14;100249.09;;;21.33;44.57
58690;BME280;44470;53.206;-6.106;2024-02-14T01:25:40;100239.41;;;21.30;44.68
58690;BME280;44470;53.206;-6.106;2024-02-14T01:28:07;100248.25;;;21.32;44.87
58690;BME280;44470;53.206;-6.106;2024-02-14T01:30:33;100247.09;;;21.40;44.54
58690;BME280;44470;53.206;-6.106;2024-02-14T01:33:00;100234.03;;;21.30;44.74
58690;BME280;44470;53.206;-6.106;2024-02-14T01:35:26;100240.41;;;21.53;44.44
58690;BME280;44470;53.206;-6.106;2024-02-14T01:37:52;100240.63;;;21.47;44.46
58690;BME280;44470;53.206;-6.106;2024-02-14T01:40:19;100241.88;;;21.37;44.70
58690;BME280;44470;53.206;-6.106;2024-02-14T01:42:45;100242.69;;;21.39;44.49
58690;BME280;44470;53.206;-6.106;2024-02-14T01:45:10;100238.50;;;21.30;44.79
58690;BME280;44470;53.206;-6.106;2024-02-14T01:47:35;100250.50;;;21.45;44.68
58690;BME280;44470;53.206;-6.106;2024-02-14T01:50:01;100249.91;;;21.37;44.63
58690;BME280;44470;53.206;-6.106;2024-02-14T01:52:28;100245.72;;;21.28;44.83
58690;BME280;44470;53.206;-6.106;2024-02-14T01:54:58;100250.41;;;21.21;45.27
58690;BME280;44470;53.206;-6.106;2024-02-14T01:57:24;100243.00;;;21.29;45.13
58690;BME280;44470;53.206;-6.106;2024-02-14T01:59:49;100246.53;;;21.30;44.78
58690;BME280;44470;53.206;-6.106;2024-02-14T02:02:17;100248.84;;;21.41;44.50
58690;BME280;44470;53.206;-6.106;2024-02-14T02:04:42;100262.69;;;21.27;44.80
58690;BME280;44470;53.206;-6.106;2024-02-14T02:07:08;100260.38;;;21.16;45.15
58690;BME280;44470;53.206;-6.106;2024-02-14T02:09:33;100256.63;;;21.22;45.26
58690;BME280;44470;53.206;-6.106;2024-02-14T02:11:59;100261.03;;;21.24;45.31
58690;BME280;44470;53.206;-6.106;2024-02-14T02:14:25;100267.44;;;21.18;45.11
58690;BME280;44470;53.206;-6.106;2024-02-14T02:16:51;100264.97;;;21.12;45.47
58690;BME280;44470;53.206;-6.106;2024-02-14T02:19:17;100271.81;;;21.21;45.07
58690;BME280;44470;53.206;-6.106;2024-02-14T02:21:42;100269.22;;;21.18;45.33
58690;BME280;44470;53.206;-6.106;2024-02-14T02:24:11;100261.13;;;21.21;44.87
58690;BME280;44470;53.206;-6.106;2024-02-14T02:26:36;100270.69;;;21.28;45.16
58690;BME280;44470;53.206;-6.106;2024-02-14T02:29:02;100274.53;;;21.19;45.25
58690;BME280;44470;53.206;-6.106;2024-02-14T02:31:27;100269.75;;;21.29;45.08
58690;BME280;44470;53.206;-6.106;2024-02-14T02:33:53;100282.66;;;21.16;45.24
58690;BME280;44470;53.206;-6.106;2024-02-14T02:36:18;100276.28;;;21.20;44.95
58690;BME280;44470;53.206;-6.106;2024-02-14T02:38:44;100276.31;;;21.19;45.17
58690;BME280;44470;53.206;-6.106;2024-02-14T02:41:09;100271.44;;;21.05;45.78
58690;BME280;44470;53.206;-6.106;2024-02-14T02:43:35;100270.44;;;21.08;45.72
58690;BME280;44470;53.206;-6.106;2024-02-14T02:46:01;100259.84;;;21.04;45.33
58690;BME280;44470;53.206;-6.106;2024-02-14T02:48:26;100270.25;;;21.14;45.33
58690;BME280;44470;53.206;-6.106;2024-02-14T02:50:52;100259.53;;;21.14;45.58
58690;BME280;44470;53.206;-6.106;2024-02-14T02:53:18;100263.78;;;21.21;45.33
58690;BME280;44470;53.206;-6.106;2024-02-14T02:55:43;100266.75;;;21.12;45.48
58690;BME280;44470;53.206;-6.106;2024-02-14T02:58:09;100261.50;;;21.09;45.35
58690;BME280;44470;53.206;-6.106;2024-02-14T03:00:34;100255.28;;;21.08;45.79
58690;BME280;44470;53.206;-6.106;2024-02-14T03:03:00;100252.66;;;21.07;45.68
58690;BME280;44470;53.206;-6.106;2024-02-14T03:05:27;100249.41;;;20.97;45.87
58690;BME280;44470;53.206;-6.106;2024-02-14T03:07:54;100250.78;;;21.09;45.66
58690;BME280;44470;53.206;-6.106;2024-02-14T03:10:22;100245.63;;;21.02;45.85
58690;BME280;44470;53.206;-6.106;2024-02-14T03:12:48;100252.75;;;21.03;45.80
58690;BME280;44470;53.206;-6.106;2024-02-14T03:15:14;100250.66;;;21.13;45.29
58690;BME280;44470;53.206;-6.106;2024-02-14T03:17:39;100251.81;;;21.04;45.53
58690;BME280;44470;53.206;-6.106;2024-02-14T03:20:05;100244.00;;;20.98;45.91
58690;BME280;44470;53.206;-6.106;2024-02-14T03:22:40;100236.91;;;20.97;45.92
58690;BME280;44470;53.206;-6.106;2024-02-14T03:25:12;100247.09;;;21.13;45.35
58690;BME280;44470;53.206;-6.106;2024-02-14T03:27:39;100246.38;;;21.08;45.43
58690;BME280;44470;53.206;-6.106;2024-02-14T03:30:05;100247.59;;;20.97;45.85
58690;BME280;44470;53.206;-6.106;2024-02-14T03:32:31;100251.06;;;21.01;45.83
58690;BME280;44470;53.206;-6.106;2024-02-14T03:34:56;100255.31;;;21.07;45.42
58690;BME280;44470;53.206;-6.106;2024-02-14T03:37:22;100251.00;;;21.02;45.83
58690;BME280;44470;53.206;-6.106;2024-02-14T03:39:47;100242.47;;;20.89;45.63
58690;BME280;44470;53.206;-6.106;2024-02-14T03:42:13;100252.13;;;20.95;45.67
58690;BME280;44470;53.206;-6.106;2024-02-14T03:44:39;100261.09;;;20.93;45.84
58690;BME280;44470;53.206;-6.106;2024-02-14T03:47:05;100257.69;;;20.87;46.26
58690;BME280;44470;53.206;-6.106;2024-02-14T03:49:31;100258.59;;;20.88;46.26
58690;BME280;44470;53.206;-6.106;2024-02-14T03:51:56;100264.75;;;20.90;45.97
58690;BME280;44470;53.206;-6.106;2024-02-14T03:54:22;100258.97;;;21.04;45.87
58690;BME280;44470;53.206;-6.106;2024-02-14T03:56:48;100255.91;;;20.88;46.10
58690;BME280;44470;53.206;-6.106;2024-02-14T03:59:14;100250.56;;;20.88;46.22
58690;BME280;44470;53.206;-6.106;2024-02-14T04:01:46;100250.41;;;20.93;45.90
58690;BME280;44470;53.206;-6.106;2024-02-14T04:04:11;100251.59;;;20.84;46.42
58690;BME280;44470;53.206;-6.106;2024-02-14T04:06:36;100247.78;;;20.91;46.05
58690;BME280;44470;53.206;-6.106;2024-02-14T04:09:02;100246.25;;;20.84;46.32
58690;BME280;44470;53.206;-6.106;2024-02-14T04:11:27;100240.00;;;20.83;46.10
58690;BME280;44470;53.206;-6.106;2024-02-14T04:13:53;100231.84;;;20.88;46.17
58690;BME280;44470;53.206;-6.106;2024-02-14T04:16:19;100238.22;;;20.84;46.02
58690;BME280;44470;53.206;-6.106;2024-02-14T04:18:44;100231.75;;;20.91;46.25
58690;BME280;44470;53.206;-6.106;2024-02-14T04:21:10;100230.28;;;20.81;46.37
58690;BME280;44470;53.206;-6.106;2024-02-14T04:23:35;100230.34;;;20.77;46.54
58690;BME280;44470;53.206;-6.106;2024-02-14T04:26:00;100225.69;;;20.84;46.32
58690;BME280;44470;53.206;-6.106;2024-02-14T04:28:26;100227.66;;;20.79;46.47
58690;BME280;44470;53.206;-6.106;2024-02-14T04:30:51;100221.50;;;20.75;46.31
58690;BME280;44470;53.206;-6.106;2024-02-14T04:33:18;100226.03;;;20.73;46.52
58690;BME280;44470;53.206;-6.106;2024-02-14T04:35:44;100228.44;;;20.83;46.21
58690;BME280;44470;53.206;-6.106;2024-02-14T04:38:09;100232.13;;;20.79;46.63
58690;BME280;44470;53.206;-6.106;2024-02-14T04:40:34;100230.47;;;20.74;46.33
58690;BME280;44470;53.206;-6.106;2024-02-14T04:43:00;100236.63;;;20.76;46.66
58690;BME280;44470;53.206;-6.106;2024-02-14T04:45:25;100235.53;;;20.84;46.29
58690;BME280;44470;53.206;-6.106;2024-02-14T04:47:51;100234.91;;;20.74;46.50
58690;BME280;44470;53.206;-6.106;2024-02-14T04:50:17;100241.16;;;20.74;46.42
58690;BME280;44470;53.206;-6.106;2024-02-14T04:52:44;100238.50;;;20.73;46.39
58690;BME280;44470;53.206;-6.106;2024-02-14T04:55:09;100238.59;;;20.70;46.70
58690;BME280;44470;53.206;-6.106;2024-02-14T04:57:35;100241.28;;;20.70;46.63
58690;BME280;44470;53.206;-6.106;2024-02-14T05:00:02;100244.84;;;20.70;46.40
58690;BME280;44470;53.206;-6.106;2024-02-14T05:02:29;100242.09;;;20.72;46.51
58690;BME280;44470;53.206;-6.106;2024-02-14T05:04:55;100253.53;;;20.79;46.24
58690;BME280;44470;53.206;-6.106;2024-02-14T05:07:20;100257.19;;;20.74;46.76
58690;BME280;44470;53.206;-6.106;2024-02-14T05:09:46;100257.22;;;20.73;46.72
58690;BME280;44470;53.206;-6.106;2024-02-14T05:12:13;100261.75;;;20.71;46.57
58690;BME280;44470;53.206;-6.106;2024-02-14T05:14:38;100259.97;;;20.71;46.69
58690;BME280;44470;53.206;-6.106;2024-02-14T05:17:05;100262.75;;;20.68;46.90
58690;BME280;44470;53.206;-6.106;2024-02-14T05:19:31;100261.84;;;20.68;46.97
58690;BME280;44470;53.206;-6.106;2024-02-14T05:21:56;100255.59;;;20.67;46.56
58690;BME280;44470;53.206;-6.106;2024-02-14T05:24:22;100246.69;;;20.68;46.63
58690;BME280;44470;53.206;-6.106;2024-02-14T05:26:47;100244.03;;;20.68;46.89
58690;BME280;44470;53.206;-6.106;2024-02-14T05:29:13;100250.25;;;20.67;46.63
58690;BME280;44470;53.206;-6.106;2024-02-14T05:31:45;100245.78;;;20.69;46.92
58690;BME280;44470;53.206;-6.106;2024-02-14T05:34:11;100245.84;;;20.66;46.99
58690;BME280;44470;53.206;-6.106;2024-02-14T05:36:37;100239.66;;;20.64;46.95
58690;BME280;44470;53.206;-6.106;2024-02-14T05:39:03;100244.03;;;20.68;46.63
58690;BME280;44470;53.206;-6.106;2024-02-14T05:41:30;100244.91;;;20.67;46.98
58690;BME280;44470;53.206;-6.106;2024-02-14T05:43:58;100247.66;;;20.66;46.58
58690;BME280;44470;53.206;-6.106;2024-02-14T05:46:23;100234.50;;;20.58;46.87
58690;BME280;44470;53.206;-6.106;2024-02-14T05:48:48;100253.03;;;20.64;46.63
58690;BME280;44470;53.206;-6.106;2024-02-14T05:51:14;100257.44;;;20.65;46.90
58690;BME280;44470;53.206;-6.106;2024-02-14T05:53:39;100245.00;;;20.64;47.06
58690;BME280;44470;53.206;-6.106;2024-02-14T05:56:05;100242.34;;;20.64;46.46
58690;BME280;44470;53.206;-6.106;2024-02-14T05:58:30;100245.00;;;20.64;46.77
58690;BME280;44470;53.206;-6.106;2024-02-14T06:00:57;100241.50;;;20.62;47.00
58690;BME280;44470;53.206;-6.106;2024-02-14T06:03:22;100248.59;;;20.63;46.86
58690;BME280;44470;53.206;-6.106;2024-02-14T06:05:48;100253.94;;;20.63;46.98
58690;BME280;44470;53.206;-6.106;2024-02-14T06:08:13;100251.28;;;20.63;47.07
58690;BME280;44470;53.206;-6.106;2024-02-14T06:10:38;100252.19;;;20.62;46.86
58690;BME280;44470;53.206;-6.106;2024-02-14T06:13:04;100241.47;;;20.64;46.66
58690;BME280;44470;53.206;-6.106;2024-02-14T06:15:30;100240.66;;;20.61;46.89
58690;BME280;44470;53.206;-6.106;2024-02-14T06:17:55;100241.50;;;20.62;46.77
58690;BME280;44470;53.206;-6.106;2024-02-14T06:20:21;100237.06;;;20.62;46.80
58690;BME280;44470;53.206;-6.106;2024-02-14T06:22:47;100248.59;;;20.63;46.49
58690;BME280;44470;53.206;-6.106;2024-02-14T06:25:13;100239.72;;;20.62;46.95
58690;BME280;44470;53.206;-6.106;2024-02-14T06:27:38;100246.84;;;20.62;46.68
58690;BME280;44470;53.206;-6.106;2024-02-14T06:30:04;100234.59;;;20.55;46.61
58690;BME280;44470;53.206;-6.106;2024-02-14T06:32:29;100250.44;;;20.61;46.54
58690;BME280;44470;53.206;-6.106;2024-02-14T06:34:55;100253.94;;;20.63;46.67
58690;BME280;44470;53.206;-6.106;2024-02-14T06:37:20;100248.66;;;20.61;46.81
58690;BME280;44470;53.206;-6.106;2024-02-14T06:39:46;100250.44;;;20.61;46.71
58690;BME280;44470;53.206;-6.106;2024-02-14T06:42:13;100261.16;;;20.61;46.70
58690;BME280;44470;53.206;-6.106;2024-02-14T06:44:38;100255.81;;;20.61;46.71
58690;BME280;44470;53.206;-6.106;2024-02-14T06:47:04;100254.94;;;20.60;47.15
58690;BME280;44470;53.206;-6.106;2024-02-14T06:49:29;100255.88;;;20.59;46.89
58690;BME280;44470;53.206;-6.106;2024-02-14T06:51:55;100257.56;;;20.62;46.72
58690;BME280;44470;53.206;-6.106;2024-02-14T06:54:20;100252.25;;;20.60;46.86
58690;BME280;44470;53.206;-6.106;2024-02-14T06:56:45;100258.53;;;20.59;46.89
58690;BME280;44470;53.206;-6.106;2024-02-14T06:59:11;100258.53;;;20.59;46.98
58690;BME280;44470;53.206;-6.106;2024-02-14T07:01:36;100258.53;;;20.59;46.73
58690;BME280;44470;53.206;-6.106;2024-02-14T07:04:02;100254.97;;;20.59;47.09
58690;BME280;44470;53.206;-6.106;2024-02-14T07:06:28;100258.56;;;20.58;47.10
58690;BME280;44470;53.206;-6.106;2024-02-14T07:08:54;100254.03;;;20.60;47.01
58690;BME280;44470;53.206;-6.106;2024-02-14T07:11:19;100258.53;;;20.59;46.98
58690;BME280;44470;53.206;-6.106;2024-02-14T07:13:44;100249.63;;;20.59;47.01
58690;BME280;44470;53.206;-6.106;2024-02-14T07:16:10;100245.16;;;20.59;47.00
58690;BME280;44470;53.206;-6.106;2024-02-14T07:18:35;100246.94;;;20.59;46.86
58690;BME280;44470;53.206;-6.106;2024-02-14T07:21:01;100246.94;;;20.59;47.08
58690;BME280;44470;53.206;-6.106;2024-02-14T07:23:31;100258.56;;;20.58;47.25
58690;BME280;44470;53.206;-6.106;2024-02-14T07:25:56;100248.75;;;20.58;46.80
58690;BME280;44470;53.206;-6.106;2024-02-14T07:28:21;100262.13;;;20.58;46.96
58690;BME280;44470;53.206;-6.106;2024-02-14T07:30:47;100257.66;;;20.59;46.98
58690;BME280;44470;53.206;-6.106;2024-02-14T07:33:12;100260.38;;;20.57;46.97
58690;BME280;44470;53.206;-6.106;2024-02-14T07:35:38;100254.16;;;20.57;46.89
58690;BME280;44470;53.206;-6.106;2024-02-14T07:38:03;100259.50;;;20.57;47.05
58690;BME280;44470;53.206;-6.106;2024-02-14T07:40:29;100261.25;;;20.58;46.97
58690;BME280;44470;53.206;-6.106;2024-02-14T07:42:59;100263.91;;;20.58;46.94
58690;BME280;44470;53.206;-6.106;2024-02-14T07:45:25;100278.19;;;20.58;46.72
58690;BME280;44470;53.206;-6.106;2024-02-14T07:47:50;100276.41;;;20.57;47.17
58690;BME280;44470;53.206;-6.106;2024-02-14T07:50:16;100275.53;;;20.57;46.81
58690;BME280;44470;53.206;-6.106;2024-02-14T07:52:42;100272.03;;;20.55;46.87
58690;BME280;44470;53.206;-6.106;2024-02-14T07:55:09;100275.53;;;20.57;46.98
58690;BME280;44470;53.206;-6.106;2024-02-14T07:57:37;100272.84;;;20.57;47.36
58690;BME280;44470;53.206;-6.106;2024-02-14T08:00:03;100259.56;;;20.55;47.20
58690;BME280;44470;53.206;-6.106;2024-02-14T08:02:29;100281.88;;;20.54;47.19
58690;BME280;44470;53.206;-6.106;2024-02-14T08:04:54;100280.06;;;20.55;46.83
58690;BME280;44470;53.206;-6.106;2024-02-14T08:07:20;100258.00;;;20.48;46.89
58690;BME280;44470;53.206;-6.106;2024-02-14T08:09:45;100284.47;;;20.56;46.90
58690;BME280;44470;53.206;-6.106;2024-02-14T08:12:11;100288.06;;;20.55;47.40
58690;BME280;44470;53.206;-6.106;2024-02-14T08:14:36;100297.84;;;20.56;46.81
58690;BME280;44470;53.206;-6.106;2024-02-14T08:17:01;100296.91;;;20.57;47.11
58690;BME280;44470;53.206;-6.106;2024-02-14T08:19:27;100301.41;;;20.56;47.14
58690;BME280;44470;53.206;-6.106;2024-02-14T08:21:52;100294.31;;;20.55;47.29
58690;BME280;44470;53.206;-6.106;2024-02-14T08:24:24;100290.75;;;20.55;47.39
58690;BME280;44470;53.206;-6.106;2024-02-14T08:26:50;100298.75;;;20.55;47.09
58690;BME280;44470;53.206;-6.106;2024-02-14T08:29:15;100305.88;;;20.56;47.12
58690;BME280;44470;53.206;-6.106;2024-02-14T08:31:40;100300.56;;;20.54;47.23
58690;BME280;44470;53.206;-6.106;2024-02-14T08:34:06;100306.84;;;20.53;47.30
58690;BME280;44470;53.206;-6.106;2024-02-14T08:36:31;100293.41;;;20.55;47.21
58690;BME280;44470;53.206;-6.106;2024-02-14T08:38:57;100302.34;;;20.54;47.11
58690;BME280;44470;53.206;-6.106;2024-02-14T08:41:22;100301.44;;;20.55;47.03
58690;BME280;44470;53.206;-6.106;2024-02-14T08:43:48;100297.00;;;20.54;47.33
58690;BME280;44470;53.206;-6.106;2024-02-14T08:46:14;100302.34;;;20.54;47.42
58690;BME280;44470;53.206;-6.106;2024-02-14T08:48:42;100297.00;;;20.54;47.34
58690;BME280;44470;53.206;-6.106;2024-02-14T08:51:14;100288.06;;;20.55;47.35
58690;BME280;44470;53.206;-6.106;2024-02-14T08:53:39;100287.25;;;20.53;47.25
58690;BME280;44470;53.206;-6.106;2024-02-14T08:56:07;100283.72;;;20.52;47.38
58690;BME280;44470;53.206;-6.106;2024-02-14T08:58:34;100290.84;;;20.52;47.16
58690;BME280;44470;53.206;-6.106;2024-02-14T09:01:00;100300.56;;;20.54;47.23
58690;BME280;44470;53.206;-6.106;2024-02-14T09:03:25;100300.50;;;20.56;47.13
58690;BME280;44470;53.206;-6.106;2024-02-14T09:05:51;100306.78;;;20.55;47.52
58690;BME280;44470;53.206;-6.106;2024-02-14T09:08:18;100313.97;;;20.53;47.37
58690;BME280;44470;53.206;-6.106;2024-02-14T09:10:44;100313.06;;;20.54;47.11
58690;BME280;44470;53.206;-6.106;2024-02-14T09:13:11;100306.84;;;20.53;47.35
58690;BME280;44470;53.206;-6.106;2024-02-14T09:15:36;100313.06;;;20.54;47.22
58690;BME280;44470;53.206;-6.106;2024-02-14T09:18:01;100318.41;;;20.54;47.55
58690;BME280;44470;53.206;-6.106;2024-02-14T09:20:28;100315.72;;;20.54;47.48
58690;BME280;44470;53.206;-6.106;2024-02-14T09:22:55;100322.00;;;20.53;47.06
58690;BME280;44470;53.206;-6.106;2024-02-14T09:25:20;100314.81;;;20.55;47.43
58690;BME280;44470;53.206;-6.106;2024-02-14T09:27:49;100315.81;;;20.51;47.14
58690;BME280;44470;53.206;-6.106;2024-02-14T09:30:14;100328.22;;;20.53;47.39
58690;BME280;44470;53.206;-6.106;2024-02-14T09:32:42;100326.47;;;20.52;47.24
58690;BME280;44470;53.206;-6.106;2024-02-14T09:35:08;100324.66;;;20.53;47.54
58690;BME280;44470;53.206;-6.106;2024-02-14T09:37:33;100307.88;;;20.47;47.11
58690;BME280;44470;53.206;-6.106;2024-02-14T09:39:58;100322.00;;;20.53;47.42
58690;BME280;44470;53.206;-6.106;2024-02-14T09:42:27;100336.28;;;20.52;47.38
58690;BME280;44470;53.206;-6.106;2024-02-14T09:44:53;100331.81;;;20.52;47.27
58690;BME280;44470;53.206;-6.106;2024-02-14T09:47:23;100336.28;;;20.52;47.27
58690;BME280;44470;53.206;-6.106;2024-02-14T09:49:49;100341.63;;;20.52;47.39
58690;BME280;44470;53.206;-6.106;2024-02-14T09:52:18;100346.06;;;20.53;47.29
58690;BME280;44470;53.206;-6.106;2024-02-14T09:54:45;100347.88;;;20.52;47.29
58690;BME280;44470;53.206;-6.106;2024-02-14T09:57:11;100339.13;;;20.45;47.27
58690;BME280;44470;53.206;-6.106;2024-02-14T09:59:38;100357.66;;;20.52;47.52
58690;BME280;44470;53.206;-6.106;2024-02-14T10:02:04;100358.56;;;20.52;47.58
58690;BME280;44470;53.206;-6.106;2024-02-14T10:04:30;100369.25;;;20.52;47.38
58690;BME280;44470;53.206;-6.106;2024-02-14T10:06:55;100362.09;;;20.53;47.28
58690;BME280;44470;53.206;-6.106;2024-02-14T10:09:21;100357.66;;;20.52;47.67
58690;BME280;44470;53.206;-6.106;2024-02-14T10:11:47;100353.22;;;20.52;47.41
58690;BME280;44470;53.206;-6.106;2024-02-14T10:14:13;100365.66;;;20.53;47.55
58690;BME280;44470;53.206;-6.106;2024-02-14T10:16:38;100367.44;;;20.53;47.43
58690;BME280;44470;53.206;-6.106;2024-02-14T10:19:04;100368.38;;;20.52;47.57
58690;BME280;44470;53.206;-6.106;2024-02-14T10:21:29;100371.09;;;20.50;47.81
58690;BME280;44470;53.206;-6.106;2024-02-14T10:23:59;100370.19;;;20.50;47.96
58690;BME280;44470;53.206;-6.106;2024-02-14T10:26:25;100361.25;;;20.51;47.62
58690;BME280;44470;53.206;-6.106;2024-02-14T10:28:50;100371.03;;;20.52;47.44
58690;BME280;44470;53.206;-6.106;2024-02-14T10:31:16;100373.72;;;20.52;47.42
58690;BME280;44470;53.206;-6.106;2024-02-14T10:33:42;100375.53;;;20.51;47.50
58690;BME280;44470;53.206;-6.106;2024-02-14T10:36:08;100374.59;;;20.52;47.77
58690;BME280;44470;53.206;-6.106;2024-02-14T10:38:34;100376.38;;;20.52;47.86
58690;BME280;44470;53.206;-6.106;2024-02-14T10:40:59;100379.03;;;20.53;47.72
58690;BME280;44470;53.206;-6.106;2024-02-14T10:43:25;100379.06;;;20.52;47.68
58690;BME280;44470;53.206;-6.106;2024-02-14T10:45:52;100374.59;;;20.52;47.63
58690;BME280;44470;53.206;-6.106;2024-02-14T10:48:18;100366.63;;;20.51;47.84
58690;BME280;44470;53.206;-6.106;2024-02-14T10:50:47;100370.13;;;20.53;48.01
58690;BME280;44470;53.206;-6.106;2024-02-14T10:53:14;100383.47;;;20.53;47.71
58690;BME280;44470;53.206;-6.106;2024-02-14T10:55:44;100381.69;;;20.53;47.92
58690;BME280;44470;53.206;-6.106;2024-02-14T10:58:10;100392.41;;;20.52;47.64
58690;BME280;44470;53.206;-6.106;2024-02-14T11:00:36;100395.09;;;20.52;47.87
58690;BME280;44470;53.206;-6.106;2024-02-14T11:03:02;100396.00;;;20.52;47.68
58690;BME280;44470;53.206;-6.106;2024-02-14T11:05:29;100397.78;;;20.52;47.85
58690;BME280;44470;53.206;-6.106;2024-02-14T11:07:54;100403.09;;;20.53;47.77
58690;BME280;44470;53.206;-6.106;2024-02-14T11:10:20;100408.53;;;20.50;47.80
58690;BME280;44470;53.206;-6.106;2024-02-14T11:12:46;100416.47;;;20.52;47.87
58690;BME280;44470;53.206;-6.106;2024-02-14T11:15:16;100425.44;;;20.51;48.04
58690;BME280;44470;53.206;-6.106;2024-02-14T11:17:42;100423.66;;;20.50;47.88
58690;BME280;44470;53.206;-6.106;2024-02-14T11:20:50;100432.53;;;20.52;48.08
58690;BME280;44470;53.206;-6.106;2024-02-14T11:22:57;100425.44;;;20.51;47.78
58690;BME280;44470;53.206;-6.106;2024-02-14T11:25:24;100426.34;;;20.50;47.77
58690;BME280;44470;53.206;-6.106;2024-02-14T11:27:53;100429.00;;;20.51;47.95
58690;BME280;44470;53.206;-6.106;2024-02-14T11:30:31;100430.78;;;20.51;48.18
58690;BME280;44470;53.206;-6.106;2024-02-14T11:33:15;100435.25;;;20.50;48.41
58690;BME280;44470;53.206;-6.106;2024-02-14T11:35:43;100432.59;;;20.50;48.12
58690;BME280;44470;53.206;-6.106;2024-02-14T11:38:09;100437.88;;;20.52;47.96
58690;BME280;44470;53.206;-6.106;2024-02-14T11:40:37;100438.84;;;20.49;48.40
58690;BME280;44470;53.206;-6.106;2024-02-14T11:43:12;100424.66;;;20.47;48.35
58690;BME280;44470;53.206;-6.106;2024-02-14T11:45:39;100431.69;;;20.50;48.31
58690;BME280;44470;53.206;-6.106;2024-02-14T11:48:08;100425.47;;;20.49;48.08
58690;BME280;44470;53.206;-6.106;2024-02-14T11:50:33;100436.13;;;20.51;48.25
58690;BME280;44470;53.206;-6.106;2024-02-14T11:52:59;100434.38;;;20.50;48.00
58690;BME280;44470;53.206;-6.106;2024-02-14T11:55:30;100435.19;;;20.52;47.95
58690;BME280;44470;53.206;-6.106;2024-02-14T11:57:55;100431.69;;;20.50;48.32
58690;BME280;44470;53.206;-6.106;2024-02-14T12:00:21;100425.50;;;20.47;48.46
58690;BME280;44470;53.206;-6.106;2024-02-14T12:02:47;100438.63;;;20.57;47.99
58690;BME280;44470;53.206;-6.106;2024-02-14T12:05:15;100445.88;;;20.52;48.03
58690;BME280;44470;53.206;-6.106;2024-02-14T12:07:40;100447.66;;;20.53;47.94
58690;BME280;44470;53.206;-6.106;2024-02-14T12:10:06;100448.56;;;20.52;48.13
58690;BME280;44470;53.206;-6.106;2024-02-14T12:12:32;100456.66;;;20.50;48.32
58690;BME280;44470;53.206;-6.106;2024-02-14T12:14:57;100452.16;;;20.51;48.38
58690;BME280;44470;53.206;-6.106;2024-02-14T12:17:24;100454.84;;;20.51;48.09
58690;BME280;44470;53.206;-6.106;2024-02-14T12:19:49;100461.09;;;20.50;47.93
58690;BME280;44470;53.206;-6.106;2024-02-14T12:22:16;100470.03;;;20.48;48.34
58690;BME280;44470;53.206;-6.106;2024-02-14T12:24:45;100467.38;;;20.48;48.05
58690;BME280;44470;53.206;-6.106;2024-02-14T12:27:10;100469.13;;;20.50;48.01
58690;BME280;44470;53.206;-6.106;2024-02-14T12:29:36;100470.03;;;20.48;48.12
58690;BME280;44470;53.206;-6.106;2024-02-14T12:32:07;100472.72;;;20.48;47.90
58690;BME280;44470;53.206;-6.106;2024-02-14T12:34:33;100461.09;;;20.50;48.23